Currently 66°F in Hemet, California, USA
66°F
78°F / 61°F
calm
0.00"
Tuesday, November 19, 2019 3:26 PM PST

Hemet, California Weather Summary
Last 36 Hours

Temperature Winds Hourly Humidity Dewpoint
Time Report Norm Report Norm Max Gusts Precip. Rpt. Norm Rpt. Norm Pressure
1Tue 03:26 PM  66.0°F  71°F  calm  1 mph  none  0.00"  59%  31%  51°F  38°F  29.68"
Tue 03:00 PM  66.0°F  71°F  1 mph SW  1 mph  10 mph  0.00"  60%  30%  51°F  37°F  29.68"
Tue 02:00 PM  70.3°F  72°F  3 mph SW  1 mph  14 mph  0.00"  41%  30%  45°F  37°F  29.70"
Tue 01:00 PM  75.4°F  71°F  5 mph S  1 mph  12 mph  0.00"  40%  31%  49°F  37°F  29.69"
Tue 12:00 PM  77.0°F  69°F  calm  1 mph  none  0.00"  34%  33%  45°F  38°F  29.71"
2Tue 11:39 AM  77.9°F  69°F  calm  1 mph  none  ----  29%  34%  42°F  38°F  29.72"
Tue 11:01 AM  75.4°F  67°F  calm  1 mph  none  0.00"  32%  36%  42°F  38°F  29.75"
Tue 10:01 AM  74.7°F  64°F  calm  calm  none  0.00"  25%  41%  35°F  39°F  29.78"
Tue 09:00 AM  70.3°F  62°F  calm  calm  none  0.00"  31%  43%  37°F  39°F  29.81"
Tue 08:00 AM  64.0°F  58°F  calm  calm  none  0.00"  28%  44%  29°F  35°F  29.81"
Tue 07:00 AM  67.3°F  53°F  calm  1 mph  none  0.00"  20%  46%  23°F  32°F  29.80"
Tue 06:00 AM  65.1°F  53°F  calm  1 mph  none  0.00"  18%  47%  19°F  32°F  29.79"
Tue 05:00 AM  65.1°F  53°F  calm  calm  none  0.00"  18%  47%  19°F  33°F  29.79"
Tue 04:01 AM  65.8°F  54°F  calm  1 mph  none  0.00"  20%  46%  22°F  33°F  29.79"
Tue 03:00 AM  63.5°F  54°F  calm  1 mph  none  0.00"  22%  46%  22°F  33°F  29.79"
Tue 02:00 AM  65.1°F  54°F  calm  1 mph  none  0.00"  18%  46%  19°F  33°F  29.80"
Tue 01:00 AM  64.2°F  55°F  calm  1 mph  none  0.00"  19%  46%  19°F  34°F  29.83"
3Tue 12:03 AM  61.0°F  55°F  calm  1 mph  none  ----  22%  46%  20°F  34°F  29.85"
Tue 12:00 AM  61.2°F  55°F  calm  1 mph  none  0.00"  21%  46%  19°F  34°F  29.86"
Mon 11:00 PM  61.9°F  56°F  calm  1 mph  none  0.00"  20%  46%  19°F  34°F  29.89"
Mon 10:00 PM  62.6°F  56°F  calm  1 mph  none  0.00"  25%  45%  25°F  35°F  29.88"
Mon 09:00 PM  67.5°F  57°F  calm  1 mph  5 mph  0.00"  17%  45%  19°F  35°F  29.89"
Mon 08:00 PM  70.2°F  58°F  calm  1 mph  5 mph  0.00"  15%  44%  18°F  35°F  29.87"
Mon 07:01 PM  70.0°F  59°F  calm  1 mph  3 mph  0.00"  14%  43%  17°F  36°F  29.89"
Mon 06:00 PM  72.5°F  61°F  calm  1 mph  9 mph  0.00"  13%  41%  17°F  37°F  29.90"
Mon 05:00 PM  75.7°F  65°F  4 mph SE  1 mph  9 mph  0.00"  11%  38%  15°F  37°F  29.87"
Mon 04:00 PM  79.9°F  70°F  1 mph SE  1 mph  5 mph  0.00"  13%  32%  23°F  38°F  29.85"
Mon 03:00 PM  84.0°F  72°F  3 mph W  1 mph  8 mph  0.00"  10%  30%  19°F  37°F  29.83"
Mon 02:00 PM  88.9°F  72°F  3 mph SW  1 mph  7 mph  0.00"  7%  29%  14°F  37°F  29.85"
Mon 01:00 PM  86.4°F  71°F  3 mph W  1 mph  7 mph  0.00"  8%  30%  16°F  37°F  29.87"
Mon 12:00 PM  84.0°F  70°F  calm  1 mph  none  0.00"  9%  32%  17°F  38°F  29.90"
Mon 11:00 AM  81.1°F  67°F  calm  1 mph  none  0.00"  9%  36%  15°F  38°F  29.94"
Mon 10:00 AM  76.6°F  64°F  calm  calm  none  0.00"  15%  40%  24°F  39°F  29.97"
Mon 09:00 AM  69.8°F  63°F  calm  calm  none  0.00"  22%  43%  28°F  39°F  29.97"
Mon 08:00 AM  68.5°F  58°F  calm  calm  none  0.00"  12%  44%  12°F  36°F  29.98"
Mon 07:00 AM  63.7°F  54°F  calm  1 mph  none  0.00"  11%  46%  6°F  33°F  29.98"
Mon 06:00 AM  61.0°F  53°F  calm  1 mph  none  0.00"  11%  46%  4°F  32°F  29.96"
Mon 05:00 AM  62.1°F  54°F  calm  calm  none  0.00"  11%  46%  4°F  33°F  29.96"
Mon 04:00 AM  61.5°F  54°F  calm  1 mph  none  0.00"  12%  46%  6°F  33°F  29.97"

  1. Current weather data. No green row appears if the current weather data is also the high or low for the current day.
  2. High temperature for the current day.
  3. Low temperature for the current day.

The Hemet weather pages are a service of WeatherCurrents. Hemet, California is located in the San Jacinto Valley, in western Riverside County, at the foot of the San Jacinto mountains.
Copyright ©2019  WeatherCurrents. All rights reserved. - Submit questions and comments - Privacy Policy

This page automatically refreshes every 10 minutes.